GLD1974 TTPP-TBPB
Flight info
| Callsign | GLD1974 |
|---|---|
| Flight time | N/A |
| Altitude | 25000 |
| Route | POS UR515 BGI |
| Aircraft | A319/M-SDE3FGHIRWY/LB1 |
Departure
| Time | N/A |
|---|---|
| Airport | Piarco International Airport (TTPP) |
Arrival
| Time | 2026-05-04 17:44 |
|---|---|
| Airport | Grantley Adams International Airport (TBPB) |
| Time | Latitude | Longitude | Altitude | Speed | Heading |
|---|---|---|---|---|---|
| 2026-05-04 17:29 | 13.11782 | -59.91452 | 5770 ft | 244 kts | 53° |
| 2026-05-04 17:30 | 13.12526 | -59.86715 | 4141 ft | 232 kts | 113° |
| 2026-05-04 17:31 | 13.10954 | -59.83845 | 3122 ft | 228 kts | 118° |
| 2026-05-04 17:31 | 13.08757 | -59.79906 | 2993 ft | 200 kts | 118° |
| 2026-05-04 17:32 | 13.07393 | -59.77447 | 2987 ft | 199 kts | 118° |
| 2026-05-04 17:33 | 13.05331 | -59.73747 | 2987 ft | 198 kts | 117° |
| 2026-05-04 17:33 | 13.04648 | -59.72524 | 2983 ft | 197 kts | 117° |
| 2026-05-04 17:34 | 13.02871 | -59.68788 | 2983 ft | 195 kts | 95° |
| 2026-05-04 17:34 | 13.02987 | -59.67403 | 2982 ft | 197 kts | 76° |
| 2026-05-04 17:35 | 13.03982 | -59.63372 | 2572 ft | 188 kts | 77° |
| 2026-05-04 17:35 | 13.04605 | -59.60841 | 2096 ft | 176 kts | 77° |
| 2026-05-04 17:35 | 13.04894 | -59.59670 | 1885 ft | 163 kts | 77° |
| 2026-05-04 17:36 | 13.05162 | -59.58578 | 1684 ft | 152 kts | 77° |
| 2026-05-04 17:36 | 13.05410 | -59.57572 | 1498 ft | 137 kts | 77° |
| 2026-05-04 17:36 | 13.05637 | -59.56650 | 1320 ft | 129 kts | 77° |
| 2026-05-04 17:36 | 13.05781 | -59.56062 | 1206 ft | 128 kts | 77° |
| 2026-05-04 17:37 | 13.06064 | -59.54912 | 1000 ft | 124 kts | 76° |
| 2026-05-04 17:37 | 13.06273 | -59.54060 | 830 ft | 125 kts | 76° |
| 2026-05-04 17:37 | 13.06492 | -59.53195 | 670 ft | 125 kts | 78° |
| 2026-05-04 17:37 | 13.06703 | -59.52326 | 530 ft | 124 kts | 80° |
| 2026-05-04 17:38 | 13.06846 | -59.51749 | 393 ft | 127 kts | 79° |
| 2026-05-04 17:38 | 13.07060 | -59.50866 | 250 ft | 127 kts | 80° |
| 2026-05-04 17:38 | 13.07317 | -59.49814 | 176 ft | 99 kts | 81° |
| 2026-05-04 17:38 | 13.07432 | -59.49290 | 333 ft | 118 kts | 79° |
| 2026-05-04 17:39 | 13.07828 | -59.47436 | 1667 ft | 143 kts | 80° |
| 2026-05-04 17:39 | 13.07975 | -59.46379 | 1811 ft | 157 kts | 90° |
| 2026-05-04 17:39 | 13.07525 | -59.45388 | 1714 ft | 160 kts | 135° |
| 2026-05-04 17:40 | 13.06491 | -59.44914 | 1659 ft | 165 kts | 159° |
| 2026-05-04 17:40 | 13.05326 | -59.44741 | 1563 ft | 183 kts | 181° |
| 2026-05-04 17:40 | 13.04168 | -59.45125 | 1482 ft | 168 kts | 210° |
| 2026-05-04 17:40 | 13.03550 | -59.46058 | 1501 ft | 159 kts | 247° |
| 2026-05-04 17:41 | 13.03268 | -59.47124 | 1494 ft | 150 kts | 257° |
| 2026-05-04 17:41 | 13.03065 | -59.48163 | 1482 ft | 148 kts | 257° |
| 2026-05-04 17:41 | 13.02872 | -59.49210 | 1490 ft | 149 kts | 258° |
| 2026-05-04 17:41 | 13.02679 | -59.50255 | 1487 ft | 148 kts | 258° |
| 2026-05-04 17:42 | 13.02476 | -59.51302 | 1487 ft | 150 kts | 258° |
| 2026-05-04 17:42 | 13.02394 | -59.52359 | 1413 ft | 151 kts | 281° |
| 2026-05-04 17:42 | 13.02971 | -59.53206 | 1291 ft | 145 kts | 329° |
| 2026-05-04 17:42 | 13.03885 | -59.53598 | 1303 ft | 142 kts | 348° |
| 2026-05-04 17:43 | 13.04820 | -59.53854 | 1289 ft | 140 kts | 352° |
| 2026-05-04 17:43 | 13.05756 | -59.53850 | 970 ft | 129 kts | 26° |
| 2026-05-04 17:43 | 13.06392 | -59.53236 | 773 ft | 127 kts | 64° |
| 2026-05-04 17:43 | 13.06704 | -59.52400 | 540 ft | 124 kts | 78° |
| 2026-05-04 17:44 | 13.06912 | -59.51524 | 354 ft | 128 kts | 81° |
| 2026-05-04 17:44 | 13.07115 | -59.50651 | 222 ft | 126 kts | 80° |
| 2026-05-04 17:44 | 13.07298 | -59.49888 | 174 ft | 92 kts | 77° |
| 2026-05-04 17:44 | 13.07380 | -59.49549 | 171 ft | 13 kts | 76° |
| 2026-05-04 17:45 | 13.07401 | -59.49465 | 171 ft | 13 kts | 76° |
| 2026-05-04 17:45 | 13.07426 | -59.49362 | 170 ft | 17 kts | 76° |
| 2026-05-04 17:45 | 13.07455 | -59.49242 | 171 ft | 18 kts | 76° |
| 2026-05-04 17:45 | 13.07486 | -59.49118 | 170 ft | 19 kts | 74° |
| 2026-05-04 17:46 | 13.07541 | -59.48992 | 170 ft | 20 kts | 49° |
| 2026-05-04 17:46 | 13.07634 | -59.48892 | 170 ft | 19 kts | 46° |
| 2026-05-04 17:46 | 13.07725 | -59.48792 | 169 ft | 19 kts | 47° |
| 2026-05-04 17:46 | 13.07793 | -59.48684 | 169 ft | 15 kts | 52° |
| 2026-05-04 17:47 | 13.07889 | -59.48685 | 169 ft | 13 kts | 346° |
| 2026-05-04 17:47 | 13.07905 | -59.48689 | 169 ft | 0 kts | 347° |